Time;durP1;ratioP1;P1;durP2;ratioP2;P2;SDS_P1;SDS_P2;PMS_P1;PMS_P2;Temp;Humidity;BMP_temperature;BMP_pressure;BME280_temperature;BME280_humidity;BME280_pressure;Samples;Min_cycle;Max_cycle;Signal;HPM_P1;HPM_P2
2022/04/21 00:00:07;;;;;;;72.68;34.28;;;;;;;;;;4990631;28;20091;-67
2022/04/21 00:02:33;;;;;;;72.55;31.80;;;;;;;;;;4990626;28;20018;-67
2022/04/21 00:04:59;;;;;;;67.57;32.35;;;;;;;;;;4974911;28;20031;-67
2022/04/21 00:07:26;;;;;;;73.53;32.20;;;;;;;;;;4971255;28;20042;-67
2022/04/21 00:09:52;;;;;;;66.80;31.35;;;;;;;;;;4978941;28;20353;-67
2022/04/21 00:12:18;;;;;;;68.65;32.70;;;;;;;;;;4990254;28;20045;-67
2022/04/21 00:14:44;;;;;;;72.70;32.20;;;;;;;;;;4977383;28;20779;-67
2022/04/21 00:17:11;;;;;;;77.82;35.72;;;;;;;;;;4971031;28;20435;-67
2022/04/21 00:19:37;;;;;;;75.10;33.50;;;;;;;;;;4971236;28;20062;-67
2022/04/21 00:24:48;;;;;;;63.70;31.40;;;;;;;;;;4970036;28;20057;-67
2022/04/21 00:27:15;;;;;;;64.90;30.48;;;;;;;;;;4970099;28;20031;-67
2022/04/21 00:29:41;;;;;;;70.05;30.27;;;;;;;;;;4979398;28;20041;-67
2022/04/21 00:32:07;;;;;;;69.90;33.47;;;;;;;;;;4970851;28;20034;-67
2022/04/21 00:34:34;;;;;;;67.25;32.30;;;;;;;;;;4980720;28;20117;-67
2022/04/21 00:37:00;;;;;;;72.15;32.58;;;;;;;;;;4990089;28;20037;-67
2022/04/21 00:39:27;;;;;;;70.75;32.85;;;;;;;;;;4990156;28;20049;-67
2022/04/21 00:41:57;;;;;;;73.18;33.15;;;;;;;;;;4989439;28;20030;-67
2022/04/21 00:44:24;;;;;;;68.70;30.50;;;;;;;;;;4974252;28;20384;-67
2022/04/21 00:46:50;;;;;;;59.28;28.85;;;;;;;;;;4970871;28;20037;-67
2022/04/21 00:49:18;;;;;;;66.25;29.63;;;;;;;;;;4988350;28;20380;-67
2022/04/21 00:51:44;;;;;;;68.28;29.80;;;;;;;;;;4990080;28;20087;-67
2022/04/21 00:54:11;;;;;;;60.65;29.55;;;;;;;;;;4980811;28;20030;-67
2022/04/21 00:56:37;;;;;;;71.97;31.40;;;;;;;;;;4989719;28;20415;-67
2022/04/21 00:59:04;;;;;;;59.33;30.63;;;;;;;;;;4989874;28;20042;-67
2022/04/21 01:04:16;;;;;;;60.95;29.55;;;;;;;;;;4989657;28;20065;-67
2022/04/21 01:06:42;;;;;;;64.78;28.98;;;;;;;;;;4980259;28;20472;-67
2022/04/21 01:09:10;;;;;;;65.03;30.42;;;;;;;;;;4971447;28;20079;-67
2022/04/21 01:11:36;;;;;;;59.25;30.00;;;;;;;;;;4981373;28;20022;-67
2022/04/21 01:14:02;;;;;;;58.03;28.33;;;;;;;;;;4990540;28;20023;-67
2022/04/21 01:16:28;;;;;;;64.57;28.55;;;;;;;;;;4973605;28;20046;-67
2022/04/21 01:18:56;;;;;;;57.28;27.75;;;;;;;;;;4973587;28;20045;-67
2022/04/21 01:21:22;;;;;;;61.15;28.75;;;;;;;;;;4973356;28;20037;-67
2022/04/21 01:23:48;;;;;;;58.80;28.58;;;;;;;;;;4972858;28;20038;-67
2022/04/21 01:26:15;;;;;;;59.53;28.85;;;;;;;;;;4989605;28;20084;-67
2022/04/21 01:28:41;;;;;;;56.60;27.50;;;;;;;;;;4992994;28;20076;-67
2022/04/21 01:31:07;;;;;;;61.45;28.23;;;;;;;;;;4992709;28;20545;-67
2022/04/21 01:33:34;;;;;;;55.53;27.38;;;;;;;;;;4987528;28;20022;-67
2022/04/21 01:36:00;;;;;;;64.57;28.60;;;;;;;;;;4981310;28;20038;-67
2022/04/21 01:41:11;;;;;;;58.50;25.90;;;;;;;;;;4982912;28;20095;-67
2022/04/21 01:43:38;;;;;;;61.30;27.10;;;;;;;;;;4992797;28;20026;-67
2022/04/21 01:46:05;;;;;;;52.63;27.00;;;;;;;;;;4992699;28;20049;-67
2022/04/21 01:48:31;;;;;;;69.50;29.25;;;;;;;;;;4982644;28;20046;-67
2022/04/21 01:50:57;;;;;;;59.22;28.27;;;;;;;;;;4975462;28;20072;-67
2022/04/21 01:53:23;;;;;;;51.13;25.83;;;;;;;;;;4990921;28;20042;-67
2022/04/21 01:55:49;;;;;;;54.80;25.90;;;;;;;;;;4992403;28;20056;-67
2022/04/21 01:58:15;;;;;;;58.97;27.17;;;;;;;;;;4985342;28;20092;-67
2022/04/21 02:00:41;;;;;;;58.47;27.27;;;;;;;;;;4979088;28;20038;-67
2022/04/21 02:03:08;;;;;;;55.85;25.65;;;;;;;;;;4992399;28;20035;-67
2022/04/21 02:05:34;;;;;;;59.92;26.13;;;;;;;;;;4992541;28;20082;-67
2022/04/21 02:08:00;;;;;;;52.72;26.30;;;;;;;;;;4987605;28;20346;-67
2022/04/21 02:10:26;;;;;;;57.80;26.98;;;;;;;;;;4972692;28;20019;-67
2022/04/21 02:12:52;;;;;;;57.35;26.38;;;;;;;;;;4984197;28;20026;-67
2022/04/21 02:15:19;;;;;;;63.30;26.40;;;;;;;;;;4972893;28;20163;-67
2022/04/21 02:17:46;;;;;;;51.97;26.08;;;;;;;;;;4972279;28;20362;-67
2022/04/21 02:20:16;;;;;;;55.50;26.40;;;;;;;;;;4976960;28;20384;-67
2022/04/21 02:22:46;;;;;;;61.08;26.80;;;;;;;;;;4991682;28;20026;-67
2022/04/21 02:25:13;;;;;;;63.33;28.30;;;;;;;;;;4992046;28;20372;-67
2022/04/21 02:27:40;;;;;;;53.90;26.17;;;;;;;;;;4989946;28;20110;-67
2022/04/21 02:30:10;;;;;;;52.83;25.55;;;;;;;;;;4988473;28;20054;-67
2022/04/21 02:32:37;;;;;;;54.00;25.23;;;;;;;;;;4991012;28;20026;-67
2022/04/21 02:35:03;;;;;;;54.70;25.77;;;;;;;;;;4989806;28;20031;-67
2022/04/21 02:37:35;;;;;;;56.67;25.40;;;;;;;;;;4971978;28;20031;-67
2022/04/21 02:40:01;;;;;;;50.78;23.98;;;;;;;;;;4972508;28;20029;-67
2022/04/21 02:42:27;;;;;;;58.30;27.30;;;;;;;;;;4971720;28;20472;-67
2022/04/21 02:44:53;;;;;;;59.65;26.10;;;;;;;;;;4973332;28;20030;-67
2022/04/21 02:47:20;;;;;;;56.92;27.33;;;;;;;;;;4972038;28;20412;-67
2022/04/21 02:49:47;;;;;;;58.83;25.95;;;;;;;;;;4972314;28;20027;-67
2022/04/21 02:52:13;;;;;;;52.95;27.10;;;;;;;;;;4981821;28;20042;-67
2022/04/21 02:57:27;;;;;;;67.97;30.45;;;;;;;;;;4991021;28;20259;-67
2022/04/21 02:59:53;;;;;;;66.28;29.30;;;;;;;;;;4991821;28;20030;-67
2022/04/21 03:02:20;;;;;;;67.97;29.90;;;;;;;;;;4973333;28;20031;-67
2022/04/21 03:04:46;;;;;;;65.63;29.38;;;;;;;;;;4972034;28;20392;-67
2022/04/21 03:07:13;;;;;;;61.22;29.40;;;;;;;;;;4971571;28;20027;-67
2022/04/21 03:09:39;;;;;;;71.25;29.20;;;;;;;;;;4972116;28;20040;-67
2022/04/21 03:12:06;;;;;;;61.00;28.85;;;;;;;;;;4971842;28;20030;-67
2022/04/21 03:14:32;;;;;;;73.88;29.10;;;;;;;;;;4971607;28;20023;-67
2022/04/21 03:16:58;;;;;;;69.07;29.38;;;;;;;;;;4986012;28;20050;-68
2022/04/21 03:19:24;;;;;;;66.53;28.42;;;;;;;;;;4991227;28;20456;-68
2022/04/21 03:24:37;;;;;;;60.72;30.23;;;;;;;;;;4971854;28;20035;-68
2022/04/21 03:27:04;;;;;;;69.88;31.23;;;;;;;;;;4971919;28;20106;-67
2022/04/21 03:29:30;;;;;;;72.10;29.90;;;;;;;;;;4973385;28;20023;-67
2022/04/21 03:31:56;;;;;;;64.20;28.48;;;;;;;;;;4991284;28;20384;-67
2022/04/21 03:34:22;;;;;;;60.97;28.20;;;;;;;;;;4985388;28;20113;-67
2022/04/21 03:36:49;;;;;;;60.40;27.27;;;;;;;;;;4971665;28;20027;-67
2022/04/21 03:39:16;;;;;;;72.07;31.75;;;;;;;;;;4970804;28;20129;-68
2022/04/21 03:41:43;;;;;;;71.53;32.80;;;;;;;;;;4971134;28;20030;-68
2022/04/21 03:44:10;;;;;;;67.35;28.95;;;;;;;;;;4986721;28;20049;-68
2022/04/21 03:46:37;;;;;;;64.40;29.00;;;;;;;;;;4990700;28;20022;-67
2022/04/21 03:49:04;;;;;;;70.40;29.90;;;;;;;;;;4976954;28;20066;-67
2022/04/21 03:51:31;;;;;;;61.47;28.27;;;;;;;;;;4977331;28;20057;-68
2022/04/21 03:53:57;;;;;;;62.83;29.20;;;;;;;;;;4990005;28;20073;-68
2022/04/21 03:56:24;;;;;;;61.90;28.88;;;;;;;;;;4990610;28;20042;-68
2022/04/21 03:58:50;;;;;;;62.20;30.67;;;;;;;;;;4986500;28;20099;-67
2022/04/21 04:01:16;;;;;;;69.35;31.58;;;;;;;;;;4971083;28;20437;-68
2022/04/21 04:03:43;;;;;;;66.63;30.25;;;;;;;;;;4971129;28;20031;-67
2022/04/21 04:11:39;;;;;;;56.53;26.75;;;;;;;;;;4971340;28;20073;-67
2022/04/21 04:14:06;;;;;;;62.88;28.42;;;;;;;;;;4970996;28;20057;-68
2022/04/21 04:16:35;;;;;;;57.22;28.50;;;;;;;;;;4970006;28;20037;-68
2022/04/21 04:19:07;;;;;;;65.32;30.65;;;;;;;;;;4977548;28;20049;-67
2022/04/21 04:21:34;;;;;;;69.47;31.23;;;;;;;;;;4970671;28;20118;-68
2022/04/21 04:24:00;;;;;;;59.97;28.35;;;;;;;;;;4971318;28;20031;-68
2022/04/21 04:26:27;;;;;;;69.80;32.25;;;;;;;;;;4977624;28;20031;-67
2022/04/21 04:28:53;;;;;;;58.80;27.98;;;;;;;;;;4986363;28;20507;-68
2022/04/21 04:31:19;;;;;;;61.80;28.85;;;;;;;;;;4979387;28;20127;-68
2022/04/21 04:33:45;;;;;;;60.50;28.75;;;;;;;;;;4981628;28;20026;-68
2022/04/21 04:36:13;;;;;;;69.88;30.35;;;;;;;;;;4975285;28;20031;-68
2022/04/21 04:38:40;;;;;;;59.67;29.25;;;;;;;;;;4980442;28;20043;-67
2022/04/21 04:43:51;;;;;;;60.95;27.98;;;;;;;;;;4973113;28;20060;-68
2022/04/21 04:46:36;;;;;;;63.70;29.35;;;;;;;;;;4974297;28;20034;-68
2022/04/21 04:49:04;;;;;;;71.10;32.05;;;;;;;;;;4984033;28;20744;-68
2022/04/21 04:51:31;;;;;;;62.10;30.15;;;;;;;;;;4978253;28;20033;-68
2022/04/21 04:53:57;;;;;;;66.63;30.90;;;;;;;;;;4973953;28;20080;-68
2022/04/21 04:56:24;;;;;;;63.55;29.92;;;;;;;;;;4980111;28;20050;-68
2022/04/21 04:58:51;;;;;;;66.28;30.00;;;;;;;;;;4982329;28;20083;-68
2022/04/21 05:01:20;;;;;;;54.35;26.05;;;;;;;;;;4980246;28;20178;-68
2022/04/21 05:03:46;;;;;;;60.28;27.95;;;;;;;;;;4981755;28;20027;-68
2022/04/21 05:06:12;;;;;;;67.97;28.55;;;;;;;;;;4974964;28;20590;-68
2022/04/21 05:08:39;;;;;;;59.90;28.20;;;;;;;;;;4981437;28;20109;-68
2022/04/21 05:11:05;;;;;;;61.72;27.92;;;;;;;;;;4979572;28;20106;-68
2022/04/21 05:13:31;;;;;;;65.38;28.90;;;;;;;;;;4982090;28;20035;-68
2022/04/21 05:15:58;;;;;;;63.70;26.77;;;;;;;;;;4982524;28;20019;-68
2022/04/21 05:18:24;;;;;;;58.00;28.10;;;;;;;;;;4980388;28;20030;-68
2022/04/21 05:20:50;;;;;;;55.83;25.70;;;;;;;;;;4983834;28;20030;-68
2022/04/21 05:23:17;;;;;;;62.58;29.00;;;;;;;;;;4977990;28;20034;-67
2022/04/21 05:25:43;;;;;;;64.43;27.25;;;;;;;;;;4980369;28;20076;-67
2022/04/21 05:28:09;;;;;;;61.35;27.70;;;;;;;;;;4974642;28;20031;-67
2022/04/21 05:33:24;;;;;;;67.63;28.70;;;;;;;;;;4977621;28;20030;-67
2022/04/21 05:35:50;;;;;;;62.60;28.83;;;;;;;;;;4973603;28;20021;-67
2022/04/21 05:38:17;;;;;;;66.53;28.65;;;;;;;;;;4983142;28;20050;-67
2022/04/21 05:40:44;;;;;;;60.40;27.27;;;;;;;;;;4977621;28;20030;-67
2022/04/21 05:43:12;;;;;;;65.30;30.17;;;;;;;;;;4975095;28;20046;-67
2022/04/21 05:45:38;;;;;;;60.10;29.52;;;;;;;;;;4980024;28;20078;-67
2022/04/21 05:48:05;;;;;;;63.85;28.63;;;;;;;;;;4976929;28;20022;-67
2022/04/21 05:50:32;;;;;;;61.42;29.38;;;;;;;;;;4974279;28;20037;-67
2022/04/21 05:53:01;;;;;;;58.55;27.73;;;;;;;;;;4978120;28;20042;-67
2022/04/21 05:55:28;;;;;;;58.67;28.85;;;;;;;;;;4973481;28;20027;-67
2022/04/21 05:57:55;;;;;;;59.47;28.67;;;;;;;;;;4981283;28;20042;-67
2022/04/21 06:00:21;;;;;;;65.03;28.30;;;;;;;;;;4976192;28;20022;-67
2022/04/21 06:02:48;;;;;;;58.30;27.77;;;;;;;;;;4981427;28;20068;-68
2022/04/21 06:05:14;;;;;;;59.70;28.60;;;;;;;;;;4979274;28;20426;-68
2022/04/21 06:07:40;;;;;;;70.55;31.98;;;;;;;;;;4975189;28;20053;-68
2022/04/21 06:10:06;;;;;;;68.00;28.63;;;;;;;;;;4970723;28;20176;-68
2022/04/21 06:12:34;;;;;;;72.03;31.35;;;;;;;;;;4970828;28;20011;-68
2022/04/21 06:15:00;;;;;;;74.45;32.50;;;;;;;;;;4973725;28;20111;-68
2022/04/21 06:17:26;;;;;;;74.88;32.80;;;;;;;;;;4977484;28;20041;-68
2022/04/21 06:19:52;;;;;;;72.85;31.52;;;;;;;;;;4977028;28;20034;-67
2022/04/21 06:22:18;;;;;;;82.60;32.05;;;;;;;;;;4981692;28;20022;-68
2022/04/21 06:24:45;;;;;;;69.82;32.83;;;;;;;;;;4974683;28;20039;-67
2022/04/21 06:27:11;;;;;;;83.05;35.88;;;;;;;;;;4977002;28;20449;-67
2022/04/21 06:29:37;;;;;;;68.68;32.67;;;;;;;;;;4978872;28;20113;-68
2022/04/21 06:32:03;;;;;;;70.82;33.42;;;;;;;;;;4979150;28;20511;-68
2022/04/21 06:34:32;;;;;;;73.57;34.17;;;;;;;;;;4979583;28;20026;-68
2022/04/21 06:36:59;;;;;;;76.55;34.55;;;;;;;;;;4979308;28;20440;-68
2022/04/21 06:39:25;;;;;;;73.30;34.65;;;;;;;;;;4980095;28;20066;-68
2022/04/21 06:41:52;;;;;;;69.13;34.22;;;;;;;;;;4980353;28;20023;-68
2022/04/21 06:49:48;;;;;;;75.15;34.00;;;;;;;;;;4978419;28;20034;-68
2022/04/21 06:52:14;;;;;;;74.07;33.22;;;;;;;;;;4981338;28;20094;-68
2022/04/21 06:54:40;;;;;;;76.90;33.80;;;;;;;;;;4980405;28;20527;-68
2022/04/21 06:57:06;;;;;;;69.45;33.38;;;;;;;;;;4980322;28;20504;-68
2022/04/21 06:59:34;;;;;;;71.85;33.60;;;;;;;;;;4979493;28;20401;-68
2022/04/21 07:02:00;;;;;;;77.05;34.70;;;;;;;;;;4994504;28;20427;-68
2022/04/21 07:04:28;;;;;;;76.22;33.42;;;;;;;;;;4979087;28;20031;-68
2022/04/21 07:06:54;;;;;;;65.97;32.80;;;;;;;;;;4978750;28;20027;-68
2022/04/21 07:09:20;;;;;;;68.15;32.95;;;;;;;;;;4981774;28;20113;-68
2022/04/21 07:11:47;;;;;;;74.60;33.08;;;;;;;;;;4978639;28;20030;-68
2022/04/21 07:14:13;;;;;;;70.30;32.75;;;;;;;;;;4978656;28;20034;-68
2022/04/21 07:16:39;;;;;;;71.88;33.42;;;;;;;;;;4980319;28;20033;-68
2022/04/21 07:19:05;;;;;;;72.55;34.58;;;;;;;;;;4976044;28;20034;-68
2022/04/21 07:21:31;;;;;;;84.25;35.55;;;;;;;;;;4971665;28;20139;-69
2022/04/21 07:23:57;;;;;;;73.55;34.20;;;;;;;;;;4978965;28;20026;-70
2022/04/21 07:26:23;;;;;;;73.72;35.17;;;;;;;;;;4979637;28;20018;-70
2022/04/21 07:28:50;;;;;;;80.05;37.28;;;;;;;;;;4975198;28;20049;-69
2022/04/21 07:31:16;;;;;;;80.20;36.33;;;;;;;;;;4981288;28;20476;-70
2022/04/21 07:33:42;;;;;;;84.47;36.47;;;;;;;;;;4979089;28;20027;-70
2022/04/21 07:36:08;;;;;;;87.55;39.05;;;;;;;;;;4979435;28;20425;-70
2022/04/21 07:38:35;;;;;;;87.05;37.00;;;;;;;;;;4981342;28;20424;-70
2022/04/21 07:41:01;;;;;;;82.63;37.53;;;;;;;;;;4978085;28;20030;-70
2022/04/21 07:43:27;;;;;;;78.03;36.22;;;;;;;;;;4977035;28;20022;-70
2022/04/21 07:45:53;;;;;;;86.00;39.35;;;;;;;;;;4981386;28;20069;-69
2022/04/21 07:48:20;;;;;;;87.63;40.10;;;;;;;;;;4986694;28;20429;-69
2022/04/21 07:50:46;;;;;;;79.88;38.03;;;;;;;;;;4970712;28;20112;-69
2022/04/21 07:53:15;;;;;;;90.97;41.53;;;;;;;;;;4970685;28;20035;-69
2022/04/21 07:55:42;;;;;;;89.22;39.58;;;;;;;;;;4970827;28;20035;-69
2022/04/21 07:58:09;;;;;;;90.28;43.85;;;;;;;;;;4977099;28;20042;-69
2022/04/21 08:00:37;;;;;;;94.85;42.75;;;;;;;;;;4977318;28;20117;-69
2022/04/21 08:03:04;;;;;;;102.95;43.78;;;;;;;;;;4978416;28;20026;-69
2022/04/21 08:05:30;;;;;;;95.45;42.30;;;;;;;;;;4971054;28;20022;-69
2022/04/21 08:07:57;;;;;;;93.03;41.55;;;;;;;;;;4970499;28;20031;-69
2022/04/21 08:10:24;;;;;;;96.72;43.63;;;;;;;;;;4970418;28;20023;-69
2022/04/21 08:12:51;;;;;;;96.13;41.95;;;;;;;;;;4971407;28;20046;-69
2022/04/21 08:15:27;;;;;;;91.88;39.85;;;;;;;;;;4984561;28;20368;-69
2022/04/21 08:17:58;;;;;;;99.72;43.00;;;;;;;;;;4988337;28;20038;-69
2022/04/21 08:20:24;;;;;;;101.93;40.20;;;;;;;;;;4985536;28;20380;-69
2022/04/21 08:22:51;;;;;;;90.00;43.05;;;;;;;;;;4979091;28;20079;-69
2022/04/21 08:33:36;;;;;;;101.68;42.03;;;;;;;;;;4975440;28;20039;-69
2022/04/21 08:36:03;;;;;;;94.93;43.33;;;;;;;;;;4974365;28;20484;-69
2022/04/21 08:38:30;;;;;;;110.10;47.67;;;;;;;;;;4976593;28;20036;-69
2022/04/21 08:40:56;;;;;;;106.85;45.95;;;;;;;;;;4978724;28;20030;-69
2022/04/21 08:43:23;;;;;;;102.63;44.65;;;;;;;;;;4971223;28;20525;-69
2022/04/21 08:45:50;;;;;;;103.20;48.25;;;;;;;;;;4978635;28;20018;-69
2022/04/21 08:48:18;;;;;;;107.55;47.80;;;;;;;;;;4969087;28;20033;-69
2022/04/21 08:50:44;;;;;;;106.60;46.85;;;;;;;;;;4976509;28;20061;-69
2022/04/21 08:53:11;;;;;;;105.30;49.05;;;;;;;;;;4981922;28;20476;-69
2022/04/21 08:55:38;;;;;;;105.82;47.72;;;;;;;;;;4986998;28;20044;-69
2022/04/21 08:58:04;;;;;;;101.63;47.03;;;;;;;;;;4983663;28;20042;-69
2022/04/21 09:00:33;;;;;;;106.75;47.72;;;;;;;;;;4974864;28;20465;-69
2022/04/21 09:03:00;;;;;;;102.43;46.30;;;;;;;;;;4984346;28;20065;-69
2022/04/21 09:05:30;;;;;;;103.18;47.33;;;;;;;;;;4979155;28;20038;-68
2022/04/21 09:07:59;;;;;;;107.75;47.30;;;;;;;;;;4983824;28;20030;-68
2022/04/21 09:10:26;;;;;;;101.20;46.80;;;;;;;;;;4974383;28;20085;-68
2022/04/21 09:12:55;;;;;;;101.82;45.58;;;;;;;;;;4981045;28;20026;-68
2022/04/21 09:15:23;;;;;;;109.18;47.13;;;;;;;;;;4983681;28;20171;-68
2022/04/21 09:17:51;;;;;;;104.75;46.40;;;;;;;;;;4977181;28;20082;-68
2022/04/21 09:20:18;;;;;;;109.72;47.65;;;;;;;;;;4987551;28;20039;-68
2022/04/21 09:22:52;;;;;;;106.38;46.55;;;;;;;;;;4987381;28;20027;-68
2022/04/21 09:25:23;;;;;;;98.25;47.53;;;;;;;;;;4969729;28;20457;-68
2022/04/21 09:27:49;;;;;;;102.13;45.40;;;;;;;;;;4969117;28;20027;-68
2022/04/21 09:30:16;;;;;;;103.90;44.92;;;;;;;;;;4985553;28;20026;-68
2022/04/21 09:32:51;;;;;;;100.97;44.60;;;;;;;;;;4972379;28;20133;-68
2022/04/21 09:35:17;;;;;;;89.18;43.20;;;;;;;;;;4986622;28;20503;-68
2022/04/21 09:37:48;;;;;;;95.80;45.03;;;;;;;;;;4989760;28;20035;-68
2022/04/21 09:40:15;;;;;;;89.53;43.97;;;;;;;;;;4985854;28;20030;-68
2022/04/21 09:42:41;;;;;;;92.38;42.90;;;;;;;;;;4982427;28;20027;-68
2022/04/21 09:47:56;;;;;;;96.95;41.35;;;;;;;;;;4972024;28;20062;-68
2022/04/21 09:50:25;;;;;;;100.55;44.83;;;;;;;;;;4978250;28;20113;-68
2022/04/21 09:52:52;;;;;;;95.15;44.75;;;;;;;;;;4978270;28;20038;-68
2022/04/21 09:55:31;;;;;;;89.47;42.85;;;;;;;;;;4985325;28;20107;-68
2022/04/21 09:58:04;;;;;;;94.82;44.30;;;;;;;;;;4995577;28;20043;-68
2022/04/21 10:00:31;;;;;;;93.65;41.53;;;;;;;;;;4976701;28;20392;-68
2022/04/21 10:02:57;;;;;;;96.82;43.95;;;;;;;;;;4971598;28;20026;-68
2022/04/21 10:05:25;;;;;;;94.60;43.90;;;;;;;;;;4975003;28;20034;-68
2022/04/21 10:07:51;;;;;;;96.05;43.47;;;;;;;;;;4990687;28;20102;-68
2022/04/21 10:10:18;;;;;;;97.10;43.38;;;;;;;;;;4982000;28;20031;-68
2022/04/21 10:12:44;;;;;;;98.25;45.45;;;;;;;;;;4973873;28;20034;-68
2022/04/21 10:15:11;;;;;;;103.25;46.42;;;;;;;;;;4971988;28;20054;-68
2022/04/21 10:17:38;;;;;;;100.15;43.50;;;;;;;;;;4982668;28;20030;-68
2022/04/21 10:20:05;;;;;;;93.47;44.72;;;;;;;;;;4971404;28;20080;-68
2022/04/21 10:22:34;;;;;;;88.38;41.95;;;;;;;;;;4970811;28;20430;-68
2022/04/21 10:25:01;;;;;;;93.75;42.80;;;;;;;;;;4973038;28;20045;-68
2022/04/21 10:27:37;;;;;;;98.43;43.90;;;;;;;;;;4974809;28;20035;-68
2022/04/21 10:30:14;;;;;;;101.25;44.05;;;;;;;;;;4974895;28;20483;-68
2022/04/21 10:32:46;;;;;;;85.10;40.13;;;;;;;;;;4974994;28;20113;-68
2022/04/21 10:35:19;;;;;;;79.33;36.87;;;;;;;;;;4974143;28;20041;-68
2022/04/21 10:37:46;;;;;;;63.30;33.65;;;;;;;;;;4973665;28;20058;-68
2022/04/21 10:40:18;;;;;;;66.53;31.58;;;;;;;;;;4976401;28;20030;-68
2022/04/21 10:42:57;;;;;;;67.30;32.90;;;;;;;;;;4970193;28;20393;-68
2022/04/21 10:45:31;;;;;;;66.75;32.72;;;;;;;;;;4978899;28;20050;-68
2022/04/21 10:48:13;;;;;;;67.72;32.20;;;;;;;;;;4976586;28;20023;-68
2022/04/21 10:50:40;;;;;;;63.83;33.15;;;;;;;;;;4970219;28;20167;-68
2022/04/21 10:58:38;;;;;;;65.80;32.25;;;;;;;;;;4972931;28;20498;-68
2022/04/21 11:01:10;;;;;;;66.43;34.30;;;;;;;;;;4972449;28;20468;-68
2022/04/21 11:03:37;;;;;;;68.13;32.07;;;;;;;;;;4980821;28;20077;-68
2022/04/21 11:06:04;;;;;;;58.38;29.90;;;;;;;;;;4983381;28;20033;-68
2022/04/21 11:08:31;;;;;;;58.50;30.08;;;;;;;;;;4978504;28;20031;-68
2022/04/21 11:10:58;;;;;;;65.28;31.58;;;;;;;;;;4970507;28;20078;-68
2022/04/21 11:13:40;;;;;;;57.33;30.17;;;;;;;;;;4978171;28;20022;-68
2022/04/21 11:16:06;;;;;;;63.78;29.25;;;;;;;;;;4974210;28;20042;-68
2022/04/21 11:18:32;;;;;;;52.20;27.20;;;;;;;;;;4972351;28;20159;-68
2022/04/21 11:21:17;;;;;;;64.35;29.17;;;;;;;;;;4974855;28;20030;-68
2022/04/21 11:23:43;;;;;;;50.92;26.48;;;;;;;;;;4975249;28;20069;-68
2022/04/21 11:26:09;;;;;;;56.80;29.20;;;;;;;;;;4980195;28;20018;-68
2022/04/21 11:28:36;;;;;;;53.92;27.52;;;;;;;;;;4978191;28;20027;-68
2022/04/21 11:31:03;;;;;;;60.58;29.85;;;;;;;;;;4974404;28;20054;-68
2022/04/21 11:33:31;;;;;;;53.88;27.63;;;;;;;;;;4976445;28;20039;-68
2022/04/21 11:36:03;;;;;;;57.35;27.92;;;;;;;;;;4978763;28;20042;-68
2022/04/21 11:38:29;;;;;;;67.15;28.95;;;;;;;;;;4974079;28;20381;-68
2022/04/21 11:40:56;;;;;;;54.80;28.15;;;;;;;;;;4972632;28;20092;-68
2022/04/21 11:43:22;;;;;;;54.20;28.33;;;;;;;;;;4972783;28;20066;-68
2022/04/21 11:45:58;;;;;;;56.30;27.58;;;;;;;;;;4972392;28;20106;-68
2022/04/21 11:48:42;;;;;;;58.25;29.08;;;;;;;;;;4973037;28;20026;-68
2022/04/21 11:51:10;;;;;;;63.03;29.40;;;;;;;;;;4975395;28;20041;-68
2022/04/21 11:53:41;;;;;;;60.10;31.63;;;;;;;;;;4972518;28;20065;-68
2022/04/21 11:56:08;;;;;;;59.92;28.48;;;;;;;;;;4977846;28;20054;-68
2022/04/21 11:58:38;;;;;;;57.25;28.88;;;;;;;;;;4973626;28;20022;-68
2022/04/21 12:06:39;;;;;;;66.63;30.38;;;;;;;;;;4971664;28;20209;-68
2022/04/21 12:09:06;;;;;;;63.53;31.75;;;;;;;;;;4975430;28;20035;-68
2022/04/21 12:11:35;;;;;;;61.70;31.17;;;;;;;;;;4977677;28;20042;-68
2022/04/21 12:14:02;;;;;;;62.03;31.20;;;;;;;;;;4970848;28;20031;-68
2022/04/21 12:16:34;;;;;;;64.18;31.58;;;;;;;;;;4968528;28;20427;-68
2022/04/21 12:19:09;;;;;;;61.33;31.45;;;;;;;;;;4981867;28;20108;-68
2022/04/21 12:21:36;;;;;;;56.00;29.13;;;;;;;;;;4970610;28;20031;-68
2022/04/21 12:24:12;;;;;;;63.63;31.20;;;;;;;;;;4968480;28;20041;-68
2022/04/21 12:26:38;;;;;;;57.33;29.38;;;;;;;;;;4983539;28;20026;-68
2022/04/21 12:29:08;;;;;;;55.03;28.83;;;;;;;;;;4970676;28;20015;-68
2022/04/21 12:31:54;;;;;;;57.17;31.30;;;;;;;;;;4969427;28;20393;-68
2022/04/21 12:34:21;;;;;;;54.35;30.08;;;;;;;;;;4974201;28;20046;-68
2022/04/21 12:36:54;;;;;;;63.20;30.95;;;;;;;;;;4982499;28;20030;-68
2022/04/21 12:39:21;;;;;;;60.40;31.20;;;;;;;;;;4985374;28;20399;-68
2022/04/21 12:41:47;;;;;;;56.72;28.88;;;;;;;;;;4972515;28;20030;-68
2022/04/21 12:44:15;;;;;;;55.42;28.02;;;;;;;;;;4968615;28;20031;-68
2022/04/21 12:46:41;;;;;;;55.05;29.70;;;;;;;;;;4970687;28;20057;-68
2022/04/21 12:49:08;;;;;;;60.05;29.67;;;;;;;;;;4970851;28;20027;-68
2022/04/21 12:51:35;;;;;;;61.80;31.45;;;;;;;;;;4969145;28;20084;-68
2022/04/21 12:54:02;;;;;;;60.85;32.00;;;;;;;;;;4978943;28;20035;-68
2022/04/21 12:56:33;;;;;;;57.47;31.23;;;;;;;;;;4976678;28;20043;-67
2022/04/21 12:58:59;;;;;;;57.40;32.10;;;;;;;;;;4978870;28;20038;-67
2022/04/21 13:01:26;;;;;;;62.67;31.33;;;;;;;;;;4978469;28;20027;-67
2022/04/21 13:03:52;;;;;;;63.70;32.38;;;;;;;;;;4972431;28;20043;-67
2022/04/21 13:06:28;;;;;;;68.85;33.78;;;;;;;;;;4988145;28;20014;-67
2022/04/21 13:08:57;;;;;;;58.28;32.10;;;;;;;;;;4980170;28;20029;-67
2022/04/21 13:11:24;;;;;;;64.90;33.22;;;;;;;;;;4992245;28;20087;-67
2022/04/21 13:13:52;;;;;;;62.10;31.27;;;;;;;;;;4991737;28;20415;-67
2022/04/21 13:16:19;;;;;;;61.47;32.88;;;;;;;;;;4981671;28;20027;-67
2022/04/21 13:18:45;;;;;;;65.90;32.67;;;;;;;;;;4991333;28;20380;-67
2022/04/21 13:23:57;;;;;;;75.18;34.25;;;;;;;;;;4980629;28;20039;-67
2022/04/21 13:26:28;;;;;;;64.45;33.67;;;;;;;;;;4991133;28;20065;-66
2022/04/21 13:28:58;;;;;;;61.88;32.67;;;;;;;;;;4974831;28;20023;-66
2022/04/21 13:34:09;;;;;;;63.70;33.65;;;;;;;;;;4972087;28;20037;-66
2022/04/21 13:36:38;;;;;;;66.20;34.50;;;;;;;;;;4972229;28;20084;-66
2022/04/21 13:39:05;;;;;;;74.68;35.95;;;;;;;;;;4972604;28;20023;-66
2022/04/21 13:41:32;;;;;;;63.70;35.55;;;;;;;;;;4972655;28;20042;-66
2022/04/21 13:43:58;;;;;;;70.30;35.00;;;;;;;;;;4981281;28;20399;-66
2022/04/21 13:46:24;;;;;;;71.30;36.90;;;;;;;;;;4977329;28;20027;-66
2022/04/21 13:48:50;;;;;;;70.10;37.22;;;;;;;;;;4979268;28;20023;-67
2022/04/21 13:51:17;;;;;;;66.03;35.67;;;;;;;;;;4975018;28;20023;-67
2022/04/21 13:53:43;;;;;;;72.00;38.15;;;;;;;;;;4979457;28;20064;-67
2022/04/21 13:56:09;;;;;;;73.28;38.10;;;;;;;;;;4977365;28;20050;-68
2022/04/21 13:58:35;;;;;;;63.80;34.47;;;;;;;;;;4975564;28;20034;-67
2022/04/21 14:01:03;;;;;;;71.40;35.90;;;;;;;;;;4973599;28;20041;-67
2022/04/21 14:03:32;;;;;;;69.88;36.10;;;;;;;;;;4977482;28;20034;-67
2022/04/21 14:05:59;;;;;;;63.85;34.83;;;;;;;;;;4980296;28;20039;-67
2022/04/21 14:08:26;;;;;;;70.13;36.08;;;;;;;;;;4974722;28;20011;-67
2022/04/21 14:10:52;;;;;;;65.63;34.65;;;;;;;;;;4980246;28;20035;-67
2022/04/21 14:13:18;;;;;;;69.35;37.10;;;;;;;;;;4977839;28;20049;-67
2022/04/21 14:15:46;;;;;;;67.70;35.35;;;;;;;;;;4976453;28;20112;-67
2022/04/21 14:18:12;;;;;;;68.85;36.60;;;;;;;;;;4983307;28;20026;-67
2022/04/21 14:20:38;;;;;;;62.03;33.60;;;;;;;;;;4980725;28;20018;-67
2022/04/21 14:23:04;;;;;;;72.95;36.03;;;;;;;;;;4979560;28;20034;-67
2022/04/21 14:25:30;;;;;;;64.38;32.33;;;;;;;;;;4986878;28;20034;-67
2022/04/21 14:27:57;;;;;;;70.80;34.47;;;;;;;;;;4974470;28;20039;-67
2022/04/21 14:30:23;;;;;;;67.72;35.97;;;;;;;;;;4983460;28;20035;-67
2022/04/21 14:32:49;;;;;;;75.68;41.55;;;;;;;;;;4977189;28;20431;-67
2022/04/21 14:35:15;;;;;;;72.70;39.35;;;;;;;;;;4979682;28;20046;-67
2022/04/21 14:45:56;;;;;;;65.43;32.92;;;;;;;;;;4972790;28;20431;-67
2022/04/21 14:48:22;;;;;;;55.33;30.85;;;;;;;;;;4982980;28;20395;-67
2022/04/21 14:50:48;;;;;;;58.88;29.02;;;;;;;;;;4970277;28;20039;-67
2022/04/21 14:53:14;;;;;;;48.53;25.80;;;;;;;;;;4979000;28;20026;-67
2022/04/21 14:55:41;;;;;;;59.78;26.35;;;;;;;;;;4986718;28;20026;-67
2022/04/21 14:58:07;;;;;;;55.72;27.80;;;;;;;;;;4973995;28;20100;-67
2022/04/21 15:00:33;;;;;;;47.60;26.05;;;;;;;;;;4980571;28;20023;-67
2022/04/21 15:02:59;;;;;;;57.70;26.48;;;;;;;;;;4980461;28;20032;-67
2022/04/21 15:05:25;;;;;;;50.05;25.20;;;;;;;;;;4978741;28;20162;-67
2022/04/21 15:07:51;;;;;;;52.33;22.88;;;;;;;;;;4977768;28;20027;-67
2022/04/21 15:10:18;;;;;;;53.40;24.35;;;;;;;;;;4974229;28;20114;-67
2022/04/21 15:12:44;;;;;;;47.05;21.80;;;;;;;;;;4969749;28;20038;-67
2022/04/21 15:15:11;;;;;;;44.67;20.05;;;;;;;;;;4977238;28;20042;-67
2022/04/21 15:17:37;;;;;;;32.97;17.35;;;;;;;;;;4978052;28;20396;-67
2022/04/21 15:20:04;;;;;;;35.05;15.30;;;;;;;;;;4977772;28;20023;-67
2022/04/21 15:22:30;;;;;;;34.45;15.13;;;;;;;;;;4980213;28;20038;-67